Time;durP1;ratioP1;P1;durP2;ratioP2;P2;SDS_P1;SDS_P2;PMS_P1;PMS_P2;Temp;Humidity;BMP_temperature;BMP_pressure;BME280_temperature;BME280_humidity;BME280_pressure;Samples;Min_cycle;Max_cycle;Signal;HPM_P1;HPM_P2
2022/09/02 00:01:23;;;;;;;0.50;0.47;;;24.40;65.30;;;;;;5002325;28;20038;-43
2022/09/02 00:03:48;;;;;;;0.75;0.75;;;24.40;65.20;;;;;;4998058;28;20050;-39
2022/09/02 00:06:14;;;;;;;0.57;0.57;;;24.40;65.20;;;;;;4998404;28;20045;-45
2022/09/02 00:08:40;;;;;;;0.60;0.60;;;24.40;65.30;;;;;;5001403;28;20069;-41
2022/09/02 00:11:06;;;;;;;0.50;0.50;;;24.40;65.20;;;;;;5000788;28;20042;-40
2022/09/02 00:13:32;;;;;;;0.47;0.47;;;24.40;65.10;;;;;;4998321;28;20043;-42
2022/09/02 00:15:58;;;;;;;0.50;0.50;;;24.40;65.10;;;;;;5002949;28;20042;-41
2022/09/02 00:18:25;;;;;;;0.50;0.50;;;24.40;65.10;;;;;;4999931;28;20385;-40
2022/09/02 00:20:50;;;;;;;0.63;0.63;;;24.40;65.00;;;;;;5001229;28;20081;-42
2022/09/02 00:23:16;;;;;;;0.60;0.60;;;24.40;65.10;;;;;;5001493;28;20525;-40
2022/09/02 00:25:43;;;;;;;0.68;0.68;;;24.40;65.10;;;;;;4999806;28;20042;-39
2022/09/02 00:28:09;;;;;;;0.77;0.52;;;24.40;65.00;;;;;;5001764;28;20077;-41
2022/09/02 00:30:34;;;;;;;0.43;0.40;;;24.40;65.00;;;;;;5000970;28;20065;-40
2022/09/02 00:33:00;;;;;;;0.73;0.60;;;24.40;65.00;;;;;;4998824;28;20521;-39
2022/09/02 00:35:26;;;;;;;0.45;0.45;;;24.40;64.90;;;;;;5003503;28;20042;-41
2022/09/02 00:37:52;;;;;;;0.55;0.52;;;24.40;64.90;;;;;;5000434;28;20705;-40
2022/09/02 00:40:17;;;;;;;0.70;0.70;;;24.40;64.80;;;;;;4999848;28;20508;-40
2022/09/02 00:42:43;;;;;;;0.60;0.60;;;24.40;64.90;;;;;;5002692;28;20065;-42
2022/09/02 00:45:10;;;;;;;0.50;0.50;;;24.40;64.90;;;;;;5004198;28;20053;-46
2022/09/02 00:47:35;;;;;;;0.47;0.47;;;24.40;64.80;;;;;;5005165;28;20500;-40
2022/09/02 00:50:03;;;;;;;0.50;0.50;;;24.40;64.80;;;;;;5006433;28;20099;-41
2022/09/02 00:52:31;;;;;;;0.60;0.60;;;24.40;64.80;;;;;;5003004;28;20045;-38
2022/09/02 00:55:00;;;;;;;0.82;0.82;;;24.40;65.20;;;;;;5002036;28;20519;-32
2022/09/02 00:57:29;;;;;;;0.80;0.80;;;24.40;64.70;;;;;;4987140;28;20209;-36
2022/09/02 01:00:26;;;;;;;0.60;0.60;;;24.40;64.80;;;;;;5003224;28;20424;-33
2022/09/02 01:03:02;;;;;;;0.50;0.50;;;24.40;64.80;;;;;;5004043;28;20046;-30
2022/09/02 01:05:29;;;;;;;0.80;0.80;;;24.40;64.70;;;;;;5003365;28;20054;-32
2022/09/02 01:07:55;;;;;;;0.45;0.45;;;24.40;64.80;;;;;;5000891;28;20637;-31
2022/09/02 01:10:26;;;;;;;0.73;0.73;;;24.40;64.80;;;;;;5003858;28;20085;-32
2022/09/02 01:12:59;;;;;;;0.43;0.43;;;24.40;64.80;;;;;;5001130;28;20073;-31
2022/09/02 01:15:26;;;;;;;0.55;0.55;;;24.40;64.70;;;;;;5001961;28;20129;-33
2022/09/02 01:17:51;;;;;;;0.70;0.70;;;24.30;64.80;;;;;;5002925;28;20042;-30
2022/09/02 01:20:21;;;;;;;0.50;0.50;;;24.30;64.80;;;;;;5005876;28;20054;-35
2022/09/02 01:22:46;;;;;;;0.60;0.60;;;24.30;64.70;;;;;;5003830;28;20492;-32
2022/09/02 01:25:15;;;;;;;0.50;0.50;;;24.30;64.70;;;;;;5004073;28;20068;-34
2022/09/02 01:27:41;;;;;;;0.50;0.50;;;24.30;64.70;;;;;;5002777;28;20428;-32
2022/09/02 01:30:08;;;;;;;0.55;0.55;;;24.30;64.80;;;;;;5003798;28;20042;-33
2022/09/02 01:32:34;;;;;;;0.60;0.60;;;24.30;65.50;;;;;;5002853;28;20050;-36
2022/09/02 01:34:59;;;;;;;0.50;0.50;;;24.30;64.70;;;;;;5001584;28;20046;-30
2022/09/02 01:37:25;;;;;;;0.60;0.60;;;24.30;64.70;;;;;;5005080;28;20122;-32
2022/09/02 01:39:51;;;;;;;0.43;0.43;;;24.30;64.70;;;;;;5002297;28;20042;-30
2022/09/02 01:42:17;;;;;;;0.40;0.40;;;24.30;64.70;;;;;;5004310;28;20033;-35
2022/09/02 01:44:42;;;;;;;0.50;0.50;;;24.30;64.70;;;;;;5001886;28;20034;-34
2022/09/02 01:47:12;;;;;;;0.50;0.50;;;24.30;64.70;;;;;;5004016;28;20087;-33
2022/09/02 01:49:38;;;;;;;0.65;0.65;;;24.30;64.80;;;;;;5003153;28;20054;-37
2022/09/02 01:52:04;;;;;;;0.60;0.60;;;24.30;64.80;;;;;;5001704;28;20039;-39
2022/09/02 01:54:29;;;;;;;0.50;0.50;;;24.30;65.40;;;;;;5004882;28;20042;-32
2022/09/02 01:56:55;;;;;;;0.40;0.40;;;24.20;64.60;;;;;;5002626;28;20089;-33
2022/09/02 01:59:20;;;;;;;0.40;0.40;;;24.20;64.70;;;;;;5004771;28;20038;-42
2022/09/02 02:01:46;;;;;;;0.40;0.40;;;24.20;64.60;;;;;;5004464;28;20596;-57
2022/09/02 02:04:12;;;;;;;0.40;0.40;;;24.20;64.60;;;;;;5002728;28;20049;-55
2022/09/02 02:06:41;;;;;;;0.63;0.40;;;24.20;64.60;;;;;;5002795;28;20400;-38
2022/09/02 02:09:07;;;;;;;0.43;0.40;;;24.20;64.60;;;;;;5003147;28;20045;-32
2022/09/02 02:11:33;;;;;;;0.50;0.50;;;24.20;64.60;;;;;;5003387;28;20046;-32
2022/09/02 02:13:59;;;;;;;0.40;0.40;;;24.20;64.60;;;;;;4999587;28;20087;-32
2022/09/02 02:16:24;;;;;;;0.38;0.38;;;24.20;64.60;;;;;;5003888;28;20485;-33
2022/09/02 02:18:50;;;;;;;0.40;0.40;;;24.20;64.70;;;;;;5000259;28;20485;-30
2022/09/02 02:21:15;;;;;;;0.40;0.40;;;24.20;64.70;;;;;;5002008;28;20030;-34
2022/09/02 02:23:41;;;;;;;0.40;0.40;;;24.20;64.60;;;;;;5003082;28;20041;-23
2022/09/02 02:26:07;;;;;;;0.50;0.50;;;24.20;64.70;;;;;;5001298;28;20128;-32
2022/09/02 02:28:33;;;;;;;0.50;0.50;;;24.20;64.70;;;;;;5002660;28;20064;-35
2022/09/02 02:30:59;;;;;;;0.40;0.40;;;24.20;64.60;;;;;;5003066;28;20054;-33
2022/09/02 02:33:27;;;;;;;0.40;0.40;;;24.20;64.70;;;;;;5002133;28;20030;-31
2022/09/02 02:35:53;;;;;;;0.38;0.38;;;24.20;64.60;;;;;;5000099;28;20469;-32
2022/09/02 02:38:19;;;;;;;0.50;0.50;;;24.20;64.60;;;;;;5004941;28;20041;-31
2022/09/02 02:40:45;;;;;;;0.50;0.50;;;24.20;64.60;;;;;;5003295;28;20046;-35
2022/09/02 02:43:10;;;;;;;0.40;0.40;;;24.20;64.60;;;;;;5003034;28;20053;-31
2022/09/02 02:45:36;;;;;;;0.40;0.40;;;24.20;64.60;;;;;;5001891;28;20508;-31
2022/09/02 02:48:01;;;;;;;0.30;0.30;;;24.10;64.60;;;;;;5002822;28;20046;-33
2022/09/02 02:50:27;;;;;;;0.40;0.40;;;24.10;64.60;;;;;;5003555;28;20531;-33
2022/09/02 02:52:53;;;;;;;0.43;0.43;;;24.20;64.60;;;;;;5003161;28;20030;-33
2022/09/02 02:55:19;;;;;;;0.40;0.40;;;24.20;64.70;;;;;;5003329;28;20536;-34
2022/09/02 02:57:45;;;;;;;0.43;0.43;;;24.10;64.60;;;;;;5000077;28;20079;-32
2022/09/02 03:00:16;;;;;;;0.47;0.47;;;24.10;64.60;;;;;;5002152;28;20041;-35
2022/09/02 03:02:41;;;;;;;0.50;0.50;;;24.10;64.60;;;;;;5001038;28;20811;-30
2022/09/02 03:05:08;;;;;;;0.55;0.55;;;24.10;64.60;;;;;;5003208;28;20521;-31
2022/09/02 03:07:33;;;;;;;0.40;0.40;;;24.10;64.60;;;;;;5000821;28;20133;-32
2022/09/02 03:09:59;;;;;;;0.50;0.50;;;24.10;64.60;;;;;;5002112;28;20133;-32
2022/09/02 03:12:25;;;;;;;0.43;0.43;;;24.10;64.50;;;;;;4999686;28;20050;-31
2022/09/02 03:14:51;;;;;;;0.30;0.30;;;24.10;64.60;;;;;;5000519;28;20117;-31
2022/09/02 03:17:16;;;;;;;0.28;0.28;;;24.10;64.60;;;;;;5003772;28;20075;-34
2022/09/02 03:19:42;;;;;;;0.40;0.40;;;24.10;64.60;;;;;;5003273;28;20053;-31
2022/09/02 03:22:09;;;;;;;0.43;0.43;;;24.10;64.50;;;;;;5002123;28;20071;-33
2022/09/02 03:24:36;;;;;;;0.50;0.50;;;24.10;64.60;;;;;;5002047;28;20168;-31
2022/09/02 03:27:02;;;;;;;0.30;0.30;;;24.10;64.60;;;;;;5000548;28;20046;-35
2022/09/02 03:29:27;;;;;;;0.40;0.40;;;24.10;64.50;;;;;;5003257;28;20045;-30
2022/09/02 03:31:53;;;;;;;0.30;0.30;;;24.10;64.50;;;;;;4999743;28;20030;-33
2022/09/02 03:34:19;;;;;;;0.40;0.40;;;24.10;65.40;;;;;;5001397;28;20053;-57
2022/09/02 03:36:44;;;;;;;0.40;0.40;;;24.00;64.50;;;;;;5002005;28;20164;-30
2022/09/02 03:39:10;;;;;;;0.40;0.40;;;24.10;65.40;;;;;;4999315;28;20626;-33
2022/09/02 03:41:36;;;;;;;0.50;0.50;;;24.00;64.60;;;;;;5002320;28;20037;-37
2022/09/02 03:44:02;;;;;;;0.40;0.40;;;24.10;64.60;;;;;;5001065;28;20126;-32
2022/09/02 03:46:28;;;;;;;0.47;0.47;;;24.10;64.60;;;;;;5003351;28;20065;-34
2022/09/02 03:48:53;;;;;;;0.50;0.50;;;24.00;64.50;;;;;;5000971;28;20526;-31
2022/09/02 03:51:19;;;;;;;0.80;0.50;;;24.00;64.60;;;;;;5000879;28;20037;-32
2022/09/02 03:53:45;;;;;;;0.30;0.30;;;24.10;64.60;;;;;;5000673;28;20419;-32
2022/09/02 03:56:11;;;;;;;0.47;0.47;;;24.00;64.50;;;;;;5000328;28;20058;-58
2022/09/02 03:58:37;;;;;;;0.40;0.40;;;24.00;64.50;;;;;;5001721;28;20408;-33
2022/09/02 04:01:03;;;;;;;0.30;0.30;;;24.00;64.40;;;;;;5000891;28;20061;-56
2022/09/02 04:03:28;;;;;;;0.30;0.30;;;24.00;64.90;;;;;;4997350;28;20069;-58
2022/09/02 04:05:54;;;;;;;0.40;0.40;;;24.00;64.50;;;;;;5000649;28;20156;-54
2022/09/02 04:08:19;;;;;;;0.50;0.50;;;24.10;64.50;;;;;;4999880;28;20057;-56
2022/09/02 04:10:45;;;;;;;0.30;0.30;;;24.00;64.50;;;;;;4999086;28;20049;-34
2022/09/02 04:13:11;;;;;;;0.50;0.40;;;24.00;64.60;;;;;;4999870;28;20045;-34
2022/09/02 04:15:43;;;;;;;1.27;0.40;;;24.00;64.50;;;;;;4999437;28;20067;-38
2022/09/02 04:18:12;;;;;;;0.40;0.40;;;24.00;64.50;;;;;;5000534;28;20049;-34
2022/09/02 04:20:38;;;;;;;0.40;0.40;;;24.00;64.50;;;;;;5001387;28;20057;-30
2022/09/02 04:23:04;;;;;;;0.30;0.30;;;24.00;64.40;;;;;;5001131;28;20065;-35
2022/09/02 04:25:30;;;;;;;0.40;0.40;;;24.00;64.60;;;;;;5001266;28;20125;-33
2022/09/02 04:27:56;;;;;;;0.32;0.32;;;24.00;64.60;;;;;;5001110;28;20424;-31
2022/09/02 04:30:24;;;;;;;0.43;0.43;;;24.00;64.50;;;;;;5000449;28;20049;-30
2022/09/02 04:32:50;;;;;;;0.30;0.30;;;24.00;64.50;;;;;;5000050;28;20046;-31
2022/09/02 04:35:15;;;;;;;0.40;0.40;;;24.00;64.50;;;;;;5003272;28;20045;-30
2022/09/02 04:37:41;;;;;;;0.43;0.43;;;24.00;64.40;;;;;;5001049;28;20042;-31
2022/09/02 04:40:07;;;;;;;0.38;0.38;;;24.00;64.40;;;;;;5001208;28;20468;-32
2022/09/02 04:42:33;;;;;;;0.50;0.50;;;24.00;64.50;;;;;;5001382;28;20534;-32
2022/09/02 04:44:58;;;;;;;0.47;0.47;;;24.00;64.50;;;;;;4999445;28;20141;-31
2022/09/02 04:47:25;;;;;;;0.43;0.43;;;24.00;64.50;;;;;;5001115;28;20076;-34
2022/09/02 04:49:51;;;;;;;0.30;0.30;;;24.00;64.50;;;;;;4997008;28;20042;-35
2022/09/02 04:52:17;;;;;;;0.40;0.40;;;24.00;64.50;;;;;;5000729;28;20419;-32
2022/09/02 04:54:42;;;;;;;0.30;0.30;;;24.00;65.30;;;;;;5001607;28;20072;-35
2022/09/02 04:57:08;;;;;;;0.50;0.50;;;24.00;64.40;;;;;;4999636;28;20057;-34
2022/09/02 04:59:35;;;;;;;0.40;0.40;;;24.00;64.50;;;;;;4999209;28;20052;-33
2022/09/02 05:02:01;;;;;;;0.38;0.38;;;24.00;64.50;;;;;;4999293;28;20046;-40
2022/09/02 05:04:27;;;;;;;0.30;0.30;;;24.00;64.50;;;;;;5000613;28;20045;-32
2022/09/02 05:06:53;;;;;;;1.17;0.60;;;24.00;64.50;;;;;;4998417;28;20046;-32
2022/09/02 05:09:19;;;;;;;0.50;0.50;;;24.00;64.50;;;;;;5001255;28;20112;-32
2022/09/02 05:11:46;;;;;;;0.60;0.60;;;24.00;64.40;;;;;;5002936;28;20049;-31
2022/09/02 05:14:14;;;;;;;0.40;0.40;;;24.00;64.50;;;;;;4999832;28;20107;-30
2022/09/02 05:16:41;;;;;;;0.40;0.40;;;24.00;64.40;;;;;;4998937;28;20539;-39
2022/09/02 05:19:08;;;;;;;0.35;0.35;;;24.00;64.50;;;;;;4995208;28;20424;-34
2022/09/02 05:21:38;;;;;;;0.50;0.50;;;24.00;64.50;;;;;;4996511;28;20122;-33
2022/09/02 05:24:04;;;;;;;0.50;0.50;;;24.00;64.50;;;;;;4996311;28;20034;-38
2022/09/02 05:26:32;;;;;;;0.50;0.50;;;23.90;64.50;;;;;;5002002;28;20088;-31
2022/09/02 05:28:59;;;;;;;0.50;0.50;;;24.00;64.40;;;;;;5002330;28;20193;-34
2022/09/02 05:31:27;;;;;;;0.70;0.70;;;24.00;64.50;;;;;;5002102;28;20044;-40
2022/09/02 05:33:53;;;;;;;0.60;0.60;;;24.00;64.40;;;;;;5003208;28;20042;-58
2022/09/02 05:36:20;;;;;;;0.35;0.35;;;24.00;64.50;;;;;;5003278;28;20048;-57
2022/09/02 05:38:45;;;;;;;0.55;0.55;;;24.00;64.50;;;;;;5001756;28;20049;-33
2022/09/02 05:41:13;;;;;;;0.57;0.57;;;24.00;64.50;;;;;;5007781;28;20045;-42
2022/09/02 05:43:39;;;;;;;0.40;0.40;;;24.00;64.40;;;;;;5004280;28;20428;-32
2022/09/02 05:46:06;;;;;;;0.40;0.40;;;23.90;64.40;;;;;;5002617;28;20524;-31
2022/09/02 05:51:17;;;;;;;1.75;0.50;;;23.90;64.40;;;;;;5003460;28;20106;-32
2022/09/02 05:53:43;;;;;;;0.50;0.50;;;23.90;64.40;;;;;;5004528;28;20424;-37
2022/09/02 05:56:09;;;;;;;0.40;0.40;;;23.90;64.50;;;;;;5004535;28;20050;-33
2022/09/02 05:58:34;;;;;;;0.50;0.50;;;24.00;64.40;;;;;;5001717;28;20058;-36
2022/09/02 06:01:05;;;;;;;0.60;0.60;;;23.90;64.40;;;;;;4997517;28;20107;-30
2022/09/02 06:03:31;;;;;;;0.45;0.45;;;23.90;64.40;;;;;;5001883;28;20072;-34
2022/09/02 06:05:57;;;;;;;0.50;0.50;;;23.90;64.40;;;;;;5002294;28;20084;-35
2022/09/02 06:08:33;;;;;;;0.50;0.50;;;23.90;64.60;;;;;;4982348;28;10001136;-56
2022/09/02 06:11:00;;;;;;;0.40;0.40;;;23.90;64.70;;;;;;4995143;28;20258;-58
2022/09/02 06:13:27;;;;;;;0.73;0.73;;;23.80;64.80;;;;;;4999850;28;20066;-56
2022/09/02 06:15:53;;;;;;;0.60;0.60;;;23.80;64.90;;;;;;4998114;28;20046;-37
2022/09/02 06:18:19;;;;;;;0.55;0.55;;;23.80;65.10;;;;;;4999051;28;20458;-38
2022/09/02 06:20:45;;;;;;;0.68;0.68;;;23.80;65.10;;;;;;5000419;28;20054;-39
2022/09/02 06:23:11;;;;;;;0.77;0.77;;;23.80;65.10;;;;;;5000482;28;20049;-31
2022/09/02 06:25:38;;;;;;;0.70;0.70;;;23.80;65.40;;;;;;4993981;28;20054;-31
2022/09/02 06:28:03;;;;;;;0.75;0.75;;;23.70;65.50;;;;;;4996144;28;20046;-54
2022/09/02 06:30:29;;;;;;;0.88;0.88;;;23.70;65.80;;;;;;5000759;28;20037;-30
2022/09/02 06:32:54;;;;;;;1.02;1.02;;;23.70;65.80;;;;;;4999547;28;20054;-36
2022/09/02 06:35:21;;;;;;;0.90;0.90;;;23.70;66.00;;;;;;5000528;28;20585;-31
2022/09/02 06:37:46;;;;;;;1.02;1.02;;;23.70;66.10;;;;;;5000268;28;20071;-36
2022/09/02 06:40:13;;;;;;;1.48;1.38;;;23.70;66.30;;;;;;4999338;28;20581;-34
2022/09/02 06:42:38;;;;;;;1.52;1.42;;;23.70;66.60;;;;;;4998726;28;21213;-57
2022/09/02 06:45:04;;;;;;;2.80;1.70;;;23.70;66.70;;;;;;4998156;28;20445;-33
2022/09/02 06:47:30;;;;;;;4.00;1.73;;;23.70;66.80;;;;;;4999884;28;20053;-32
2022/09/02 06:49:56;;;;;;;1.70;1.60;;;23.70;67.00;;;;;;4999105;28;20434;-41
2022/09/02 06:52:22;;;;;;;2.00;1.90;;;23.60;66.90;;;;;;5002593;28;20053;-33
2022/09/02 06:54:49;;;;;;;1.77;1.63;;;23.70;66.90;;;;;;5005401;28;20038;-34
2022/09/02 06:57:15;;;;;;;1.55;1.45;;;23.70;67.90;;;;;;5001394;28;20049;-36
2022/09/02 06:59:40;;;;;;;2.00;1.90;;;23.70;67.20;;;;;;5001847;28;20045;-31
2022/09/02 07:02:06;;;;;;;1.42;1.33;;;23.70;67.10;;;;;;5002854;28;20409;-32
2022/09/02 07:07:16;;;;;;;1.20;1.20;;;23.70;66.60;;;;;;5002556;28;20115;-36
2022/09/02 07:09:41;;;;;;;1.50;1.40;;;23.80;66.20;;;;;;5000394;28;20504;-34
2022/09/02 07:12:07;;;;;;;1.30;1.23;;;23.80;66.00;;;;;;5001378;28;20030;-33
2022/09/02 07:14:39;;;;;;;1.35;1.27;;;23.80;65.90;;;;;;5002888;28;20107;-31
2022/09/02 07:17:05;;;;;;;1.58;1.48;;;23.80;65.90;;;;;;5003439;28;20026;-32
2022/09/02 07:19:30;;;;;;;1.42;1.38;;;23.90;66.70;;;;;;5002395;28;20049;-36
2022/09/02 07:21:56;;;;;;;1.40;1.40;;;23.90;65.70;;;;;;5002781;28;20030;-33
2022/09/02 07:24:22;;;;;;;1.17;1.17;;;23.80;65.70;;;;;;5003438;28;20557;-32
2022/09/02 07:26:47;;;;;;;1.15;1.13;;;23.80;65.60;;;;;;5001219;28;20459;-35
2022/09/02 07:29:13;;;;;;;1.20;1.20;;;23.90;65.70;;;;;;5000713;28;20049;-33
2022/09/02 07:31:40;;;;;;;1.30;1.30;;;23.80;65.60;;;;;;5004602;28;20026;-37
2022/09/02 07:34:07;;;;;;;1.10;1.10;;;23.80;65.60;;;;;;4998892;28;20046;-30
2022/09/02 07:36:34;;;;;;;1.67;1.20;;;23.90;65.60;;;;;;5003430;28;20312;-36
2022/09/02 07:39:00;;;;;;;1.17;1.17;;;23.80;66.30;;;;;;5000535;28;20070;-31
2022/09/02 07:41:26;;;;;;;1.05;1.05;;;23.90;65.50;;;;;;5002461;28;20030;-34
2022/09/02 07:43:51;;;;;;;1.30;1.30;;;23.80;65.50;;;;;;5000659;28;20053;-31
2022/09/02 07:46:17;;;;;;;1.05;1.05;;;23.90;65.50;;;;;;5001505;28;20030;-33
2022/09/02 07:48:43;;;;;;;1.10;1.10;;;23.90;65.40;;;;;;5000652;28;20500;-30
2022/09/02 07:51:09;;;;;;;1.25;1.20;;;23.80;65.40;;;;;;5002551;28;20142;-39
2022/09/02 07:53:35;;;;;;;1.27;1.27;;;23.90;65.40;;;;;;5002157;28;20057;-37
2022/09/02 07:56:01;;;;;;;1.20;1.20;;;23.90;65.40;;;;;;5002537;28;20076;-31
2022/09/02 07:58:27;;;;;;;1.30;1.30;;;23.80;65.40;;;;;;5003724;28;20045;-36
2022/09/02 08:00:54;;;;;;;1.20;1.10;;;23.90;65.40;;;;;;5000261;28;20383;-29
2022/09/02 08:03:20;;;;;;;1.30;1.20;;;23.80;65.30;;;;;;4999697;28;20042;-33
2022/09/02 08:05:46;;;;;;;1.27;1.10;;;23.90;65.30;;;;;;5000442;28;20060;-33
2022/09/02 08:08:13;;;;;;;1.83;1.20;;;23.90;65.30;;;;;;4999147;28;20046;-31
2022/09/02 08:10:39;;;;;;;1.10;1.10;;;23.90;65.30;;;;;;5000020;28;20061;-31
2022/09/02 08:13:05;;;;;;;1.10;1.10;;;23.90;65.30;;;;;;5001269;28;20045;-30
2022/09/02 08:15:31;;;;;;;1.50;0.93;;;23.80;65.20;;;;;;5000171;28;20045;-34
2022/09/02 08:17:57;;;;;;;1.20;1.20;;;23.90;65.30;;;;;;5000115;28;20423;-30
2022/09/02 08:20:22;;;;;;;1.23;1.13;;;23.90;65.30;;;;;;4998122;28;20062;-30
2022/09/02 08:22:48;;;;;;;1.55;1.25;;;23.80;65.20;;;;;;5001651;28;20385;-33
2022/09/02 08:25:14;;;;;;;1.58;1.25;;;23.80;65.20;;;;;;5003100;28;20042;-33
2022/09/02 08:27:40;;;;;;;1.00;1.00;;;23.80;66.00;;;;;;5001092;28;20504;-30
2022/09/02 08:30:08;;;;;;;1.08;0.85;;;23.80;65.20;;;;;;5000933;28;20054;-31
2022/09/02 08:32:34;;;;;;;1.00;1.00;;;23.90;65.20;;;;;;5002852;28;20049;-32
2022/09/02 08:35:01;;;;;;;1.00;1.00;;;23.90;65.20;;;;;;5000497;28;20042;-32
2022/09/02 08:37:28;;;;;;;1.10;1.10;;;23.90;65.20;;;;;;4999739;28;20054;-31
2022/09/02 08:39:53;;;;;;;1.15;1.15;;;23.90;65.10;;;;;;5002519;28;20133;-31
2022/09/02 08:42:21;;;;;;;0.98;0.98;;;23.90;65.10;;;;;;5000843;28;20500;-28
2022/09/02 08:44:46;;;;;;;1.40;1.13;;;23.90;65.10;;;;;;5001852;28;20042;-33
2022/09/02 08:47:17;;;;;;;1.00;1.00;;;23.90;65.00;;;;;;5000293;28;20450;-37
2022/09/02 08:49:48;;;;;;;1.00;1.00;;;23.90;65.10;;;;;;5001287;28;20117;-32
2022/09/02 08:52:21;;;;;;;1.17;1.17;;;23.80;65.10;;;;;;4999480;28;20041;-31
2022/09/02 08:54:57;;;;;;;0.90;0.90;;;23.80;65.10;;;;;;4998090;28;20409;-31
2022/09/02 08:57:25;;;;;;;1.00;1.00;;;23.80;65.10;;;;;;4998930;28;20083;-31
2022/09/02 08:59:50;;;;;;;0.98;0.98;;;23.80;65.10;;;;;;5000242;28;20421;-32
2022/09/02 09:02:30;;;;;;;1.20;1.20;;;23.80;65.00;;;;;;5003608;28;20505;-34
2022/09/02 09:05:32;;;;;;;1.00;1.00;;;23.80;65.00;;;;;;5019589;28;20115;-29
2022/09/02 09:08:02;;;;;;;0.82;0.82;;;23.90;65.00;;;;;;5001926;28;20041;-31
2022/09/02 09:10:34;;;;;;;0.98;0.98;;;23.80;65.10;;;;;;5003756;28;20053;-33
2022/09/02 09:13:19;;;;;;;0.93;0.93;;;23.80;65.00;;;;;;5005114;28;20500;-31
2022/09/02 09:16:06;;;;;;;;;;;23.90;65.00;;;;;;5004772;28;20064;-35
2022/09/02 09:18:55;;;;;;;0.95;0.95;;;23.80;64.90;;;;;;5001216;28;19924;-29
2022/09/02 09:21:20;;;;;;;0.82;0.82;;;23.80;64.90;;;;;;5005168;28;20054;-33
2022/09/02 09:23:46;;;;;;;0.93;0.93;;;23.90;65.00;;;;;;5004365;28;20132;-33
2022/09/02 09:26:13;;;;;;;1.73;1.00;;;23.90;65.00;;;;;;5003736;28;20045;-31
2022/09/02 09:28:43;;;;;;;1.17;1.17;;;23.80;64.90;;;;;;5005405;28;20045;-32
2022/09/02 09:31:10;;;;;;;0.90;0.90;;;23.90;65.00;;;;;;5002569;28;20129;-33
2022/09/02 09:33:36;;;;;;;0.80;0.80;;;23.90;65.00;;;;;;5000968;28;20681;-32
2022/09/02 09:36:04;;;;;;;0.80;0.80;;;23.80;64.90;;;;;;5002738;28;20137;-32
2022/09/02 09:38:34;;;;;;;1.00;1.00;;;23.90;65.00;;;;;;5003735;28;20412;-59
2022/09/02 09:41:29;;;;;;;0.90;0.90;;;23.90;65.00;;;;;;5003682;28;20132;-40
2022/09/02 09:43:56;;;;;;;0.82;0.82;;;23.80;65.00;;;;;;5007857;28;20050;-38
2022/09/02 09:46:27;;;;;;;0.70;0.70;;;23.80;64.90;;;;;;5002519;28;20054;-37
2022/09/02 09:48:52;;;;;;;1.20;1.20;;;23.80;65.00;;;;;;5002535;28;21160;-36
2022/09/02 09:51:18;;;;;;;0.80;0.77;;;23.90;65.00;;;;;;5003523;28;20095;-40
2022/09/02 09:53:44;;;;;;;0.90;0.90;;;23.80;65.30;;;;;;5004162;28;20050;-32
2022/09/02 09:56:12;;;;;;;1.10;1.10;;;23.80;65.00;;;;;;5003096;28;20041;-36
2022/09/02 09:58:38;;;;;;;1.10;1.10;;;23.90;64.90;;;;;;5003624;28;20052;-35
2022/09/02 10:01:24;;;;;;;0.88;0.88;;;23.90;64.90;;;;;;5004001;28;20050;-34
2022/09/02 10:04:09;;;;;;;0.90;0.90;;;23.90;64.90;;;;;;4999884;28;20588;-34
2022/09/02 10:06:37;;;;;;;0.68;0.68;;;23.90;64.80;;;;;;4998962;28;20048;-35
2022/09/02 10:09:21;;;;;;;1.10;1.10;;;23.90;64.90;;;;;;5003127;28;20042;-35
2022/09/02 10:12:06;;;;;;;0.73;0.73;;;23.90;64.90;;;;;;5002061;28;20551;-34
2022/09/02 10:14:43;;;;;;;0.80;0.80;;;23.90;64.70;;;;;;5000904;28;20588;-30
2022/09/02 10:17:31;;;;;;;0.83;0.83;;;23.90;64.80;;;;;;4911339;28;10000645;-31
2022/09/02 10:20:18;;;;;;;1.00;1.00;;;23.90;64.90;;;;;;5066947;28;20358;-37
2022/09/02 10:23:03;;;;;;;0.68;0.68;;;23.80;65.20;;;;;;5016007;28;20045;-34
2022/09/02 10:25:38;;;;;;;0.85;0.85;;;23.80;64.90;;;;;;4988109;28;20053;-33
2022/09/02 10:28:33;;;;;;;0.70;0.70;;;23.90;64.80;;;;;;5017509;28;20053;-38
2022/09/02 10:31:30;;;;;;;0.63;0.63;;;23.90;64.80;;;;;;4994038;28;20462;-35
2022/09/02 10:34:01;;;;;;;0.77;0.77;;;23.80;64.80;;;;;;4645982;28;10000120;-37
2022/09/02 10:36:47;;;;;;;1.00;1.00;;;23.90;65.00;;;;;;4991161;28;20054;-33
2022/09/02 10:39:50;;;;;;;1.13;1.13;;;23.90;65.20;;;;;;4990093;28;20034;-35
2022/09/02 10:42:22;;;;;;;2.75;1.83;;;23.90;65.80;;;;;;4992627;28;20052;-31
2022/09/02 10:45:27;;;;;;;2.25;1.90;;;23.80;66.90;;;;;;4979953;28;20588;-36
2022/09/02 10:48:29;;;;;;;1.98;1.88;;;23.80;66.60;;;;;;4991019;28;20066;-31
2022/09/02 10:51:09;;;;;;;2.90;2.70;;;23.90;66.90;;;;;;4991004;28;20041;-31
2022/09/02 10:54:02;;;;;;;2.72;2.63;;;23.90;66.90;;;;;;4990639;28;20447;-37
2022/09/02 10:56:42;;;;;;;2.33;2.22;;;23.90;67.20;;;;;;4989587;28;20041;-37
2022/09/02 10:59:15;;;;;;;2.22;2.03;;;23.90;67.70;;;;;;4995601;28;20133;-30
2022/09/02 11:01:47;;;;;;;1.90;1.80;;;23.90;68.20;;;;;;4994344;28;20053;-33
2022/09/02 11:04:26;;;;;;;2.17;1.60;;;23.90;68.00;;;;;;4992649;28;20030;-32
2022/09/02 11:06:52;;;;;;;1.40;1.30;;;23.80;68.20;;;;;;4988887;28;20041;-33
2022/09/02 11:09:26;;;;;;;1.80;1.70;;;23.80;67.40;;;;;;4992994;28;20034;-33
2022/09/02 11:11:54;;;;;;;1.77;1.67;;;23.80;68.00;;;;;;4993745;28;20065;-32
2022/09/02 11:14:40;;;;;;;1.70;1.60;;;23.80;68.90;;;;;;5003479;28;20389;-31
2022/09/02 11:17:34;;;;;;;1.88;1.77;;;23.80;69.00;;;;;;4990560;28;20136;-33
2022/09/02 11:20:23;;;;;;;5.60;2.00;;;23.80;69.50;;;;;;4991681;28;20070;-38
2022/09/02 11:22:52;;;;;;;1.63;1.52;;;23.80;69.70;;;;;;4991814;28;20046;-30
2022/09/02 11:25:28;;;;;;;3.92;1.90;;;23.90;68.40;;;;;;4985377;28;20100;-32
2022/09/02 11:28:15;;;;;;;1.55;1.45;;;23.90;67.40;;;;;;4990879;28;20057;-36
2022/09/02 11:30:57;;;;;;;1.63;1.52;;;23.90;67.30;;;;;;4988347;28;20054;-37
2022/09/02 11:33:25;;;;;;;1.27;1.27;;;24.00;67.20;;;;;;5004505;28;20096;-31
2022/09/02 11:35:51;;;;;;;2.70;1.50;;;24.00;67.70;;;;;;4988924;28;20061;-36
2022/09/02 11:38:22;;;;;;;1.52;1.48;;;24.00;67.10;;;;;;4986999;28;20103;-33
2022/09/02 11:40:48;;;;;;;1.23;1.23;;;24.00;67.10;;;;;;4989997;28;20141;-33
2022/09/02 11:43:26;;;;;;;1.33;1.23;;;24.00;67.20;;;;;;4994832;28;20042;-29
2022/09/02 11:46:03;;;;;;;1.23;1.20;;;24.00;67.10;;;;;;4986817;28;20053;-30
2022/09/02 11:48:59;;;;;;;1.15;1.15;;;24.00;67.90;;;;;;4990930;28;20572;-32
2022/09/02 11:51:50;;;;;;;1.20;1.20;;;24.00;67.40;;;;;;4995645;28;20038;-35
2022/09/02 11:54:16;;;;;;;1.45;1.27;;;24.00;67.20;;;;;;4997797;28;20046;-32
2022/09/02 11:56:47;;;;;;;1.10;1.10;;;24.00;67.10;;;;;;4978606;28;20046;-34
2022/09/02 11:59:20;;;;;;;1.00;1.00;;;24.00;67.60;;;;;;4991549;28;20206;-31
2022/09/02 12:01:55;;;;;;;1.50;1.40;;;24.00;66.90;;;;;;4989021;28;20045;-33
2022/09/02 12:04:25;;;;;;;1.65;1.55;;;24.00;67.20;;;;;;4990789;28;20292;-31
2022/09/02 12:07:06;;;;;;;1.65;1.55;;;24.00;67.50;;;;;;5017775;28;20579;-34
2022/09/02 12:09:55;;;;;;;1.88;1.77;;;24.10;67.50;;;;;;4997105;28;20501;-36
2022/09/02 12:12:37;;;;;;;2.22;2.13;;;24.10;67.60;;;;;;4999559;28;20121;-38
2022/09/02 12:15:06;;;;;;;1.95;1.85;;;24.10;68.30;;;;;;4998197;28;20133;-28
2022/09/02 12:17:43;;;;;;;2.40;1.63;;;24.10;67.80;;;;;;4996939;28;20034;-39
2022/09/02 12:20:11;;;;;;;1.80;1.70;;;24.20;67.80;;;;;;4996867;28;20046;-34
2022/09/02 12:22:39;;;;;;;1.52;1.50;;;24.20;68.00;;;;;;4988342;28;20190;-32
2022/09/02 12:25:25;;;;;;;1.58;1.48;;;24.20;68.00;;;;;;4977070;28;20042;-34
2022/09/02 12:28:16;;;;;;;2.60;1.67;;;24.20;68.30;;;;;;4976193;28;20172;-33
2022/09/02 12:31:04;;;;;;;1.70;1.60;;;24.20;67.60;;;;;;4981989;28;21167;-35
2022/09/02 12:33:36;;;;;;;1.50;1.40;;;24.10;67.40;;;;;;4974053;28;20828;-37
2022/09/02 12:36:03;;;;;;;1.90;1.80;;;24.20;67.30;;;;;;4972884;28;20053;-34
2022/09/02 12:38:37;;;;;;;1.73;1.67;;;24.20;67.90;;;;;;4976653;28;20045;-35
2022/09/02 12:41:03;;;;;;;1.88;1.60;;;24.20;67.60;;;;;;4977348;28;20085;-36
2022/09/02 12:43:34;;;;;;;1.40;1.30;;;24.20;67.40;;;;;;4973177;28;20560;-33
2022/09/02 12:46:26;;;;;;;1.50;1.40;;;24.20;67.40;;;;;;4973284;28;20171;-35
2022/09/02 12:48:58;;;;;;;1.50;1.40;;;24.20;67.40;;;;;;4988283;28;20060;-36
2022/09/02 12:51:52;;;;;;;2.25;1.50;;;24.20;67.60;;;;;;4989063;28;20189;-32
2022/09/02 12:54:22;;;;;;;1.50;1.40;;;24.20;67.50;;;;;;4971077;28;20062;-33
2022/09/02 12:56:48;;;;;;;1.65;1.55;;;24.20;67.90;;;;;;4987639;28;20103;-33
2022/09/02 12:59:38;;;;;;;1.70;1.60;;;24.20;67.60;;;;;;4969547;28;20055;-37
2022/09/02 13:02:09;;;;;;;1.30;1.30;;;24.20;67.40;;;;;;4974289;28;20077;-38
2022/09/02 13:04:59;;;;;;;2.00;1.48;;;24.20;67.50;;;;;;4967662;28;20053;-38
2022/09/02 13:07:56;;;;;;;1.80;1.70;;;24.20;67.50;;;;;;4969841;28;20039;-39